createdAt,value
2019-01-05T00:01:13.184Z,81.80
2019-01-05T00:03:58.654Z,81.82
2019-01-05T00:06:45.550Z,76.35
2019-01-05T00:09:38.160Z,79.20
2019-01-05T00:12:34.053Z,84.13
2019-01-05T00:15:19.915Z,97.78
2019-01-05T00:18:09.924Z,84.45
2019-01-05T00:21:04.246Z,81.02
2019-01-05T00:23:55.747Z,88.78
2019-01-05T00:26:41.839Z,88.47
2019-01-05T00:29:26.906Z,85.67
2019-01-05T00:32:34.403Z,99.97
2019-01-05T00:35:20.503Z,89.17
2019-01-05T00:38:12.133Z,94.45
2019-01-05T00:40:59.949Z,93.78
2019-01-05T00:43:55.550Z,97.55
2019-01-05T00:46:41.465Z,88.35
2019-01-05T00:49:38.498Z,89.95
2019-01-05T00:52:23.997Z,92.08
2019-01-05T00:55:22.797Z,91.67
2019-01-05T00:58:13.299Z,89.22
2019-01-05T01:00:58.717Z,95.92
2019-01-05T01:03:51.109Z,94.58
2019-01-05T01:06:38.193Z,89.65
2019-01-05T01:09:24.528Z,96.12
2019-01-05T01:12:11.398Z,93.22
2019-01-05T01:15:13.224Z,93.70
2019-01-05T01:18:06.214Z,93.55
2019-01-05T01:20:51.548Z,85.65
2019-01-05T01:23:31.693Z,87.95
2019-01-05T01:26:18.654Z,81.63
2019-01-05T01:29:04.232Z,85.10
2019-01-05T01:31:49.532Z,89.83
2019-01-05T01:34:51.048Z,79.50
2019-01-05T01:37:49.790Z,82.47
2019-01-05T01:40:30.162Z,86.30
2019-01-05T01:43:36.278Z,83.70
2019-01-05T01:46:21.540Z,80.90
2019-01-05T01:49:08.185Z,83.45
2019-01-05T01:51:57.213Z,82.37
2019-01-05T01:54:42.525Z,86.70
2019-01-05T01:57:39.892Z,92.82
2019-01-05T02:00:46.855Z,79.17
2019-01-05T02:03:25.350Z,84.22
2019-01-05T02:06:14.420Z,82.88
2019-01-05T02:09:25.024Z,90.92
2019-01-05T02:12:23.076Z,84.37
2019-01-05T02:15:22.992Z,93.87
2019-01-05T02:18:33.002Z,96.63
2019-01-05T02:21:46.326Z,90.45
2019-01-05T02:24:55.634Z,89.28
2019-01-05T02:27:59.572Z,86.57
2019-01-05T02:30:55.730Z,107.52
2019-01-05T02:34:45.317Z,105.55
2019-01-05T02:38:15.549Z,105.50
2019-01-05T02:41:44.199Z,87.57
2019-01-05T02:45:10.143Z,76.22
2019-01-05T02:48:37.193Z,81.65
2019-01-05T02:51:42.449Z,85.15
2019-01-05T02:55:27.679Z,70.52
2019-01-05T02:58:59.796Z,54.67
2019-01-05T03:02:31.324Z,57.35
2019-01-05T03:06:09.411Z,51.40
2019-01-05T03:09:27.319Z,45.48
2019-01-05T03:13:04.401Z,46.20
2019-01-05T03:16:20.517Z,46.48
2019-01-05T03:19:56.240Z,46.25
2019-01-05T03:23:16.370Z,47.35
2019-01-05T03:27:02.769Z,46.33
2019-01-05T03:30:27.361Z,45.40
2019-01-05T03:33:46.118Z,43.10
2019-01-05T03:37:07.404Z,43.08
2019-01-05T03:40:35.231Z,44.55
2019-01-05T03:43:59.290Z,47.20
2019-01-05T03:47:51.739Z,48.13
2019-01-05T03:51:52.461Z,42.00
2019-01-05T03:55:31.397Z,44.05
2019-01-05T03:59:06.707Z,45.40
2019-01-05T04:02:28.477Z,44.23
2019-01-05T04:05:29.709Z,43.80
2019-01-05T04:08:57.092Z,39.98
2019-01-05T04:12:39.405Z,38.20
2019-01-05T04:16:25.790Z,38.50
2019-01-05T04:20:13.920Z,35.85
2019-01-05T04:23:35.343Z,32.10
2019-01-05T04:27:11.207Z,31.52
2019-01-05T04:30:54.580Z,27.13
2019-01-05T04:34:19.861Z,31.52
2019-01-05T04:37:47.613Z,33.65
2019-01-05T04:41:16.057Z,35.60
2019-01-05T04:44:23.619Z,32.23
2019-01-05T04:47:54.945Z,35.90
2019-01-05T04:51:46.754Z,30.00
2019-01-05T04:55:09.846Z,28.98
2019-01-05T04:58:41.944Z,28.00
2019-01-05T05:02:34.688Z,29.75
2019-01-05T05:06:05.046Z,31.27
2019-01-05T05:09:44.032Z,29.57
2019-01-05T05:13:22.143Z,36.15
2019-01-05T05:16:31.200Z,38.50
2019-01-05T05:19:52.889Z,47.27
2019-01-05T05:23:28.150Z,41.63
2019-01-05T05:26:45.846Z,42.55
2019-01-05T05:30:31.147Z,43.87
2019-01-05T05:33:45.135Z,47.78
2019-01-05T05:37:30.661Z,53.08
2019-01-05T05:40:56.896Z,47.60
2019-01-05T05:44:17.456Z,49.48
2019-01-05T05:47:21.095Z,46.10
2019-01-05T05:51:00.873Z,42.60
2019-01-05T05:54:30.165Z,37.63
2019-01-05T05:57:50.309Z,35.30
2019-01-05T06:01:34.061Z,38.92
2019-01-05T06:05:09.184Z,37.00
2019-01-05T06:08:38.225Z,35.65
2019-01-05T06:12:07.387Z,34.58
2019-01-05T06:15:40.755Z,32.48
2019-01-05T06:19:05.877Z,32.65
2019-01-05T06:22:30.285Z,33.05
2019-01-05T06:26:07.845Z,39.67
2019-01-05T06:29:26.453Z,39.78
2019-01-05T06:32:42.737Z,42.98
2019-01-05T06:35:48.940Z,42.90
2019-01-05T06:39:18.308Z,44.38
2019-01-05T06:42:54.846Z,41.15
2019-01-05T06:46:21.507Z,37.73
2019-01-05T06:49:57.769Z,45.90
2019-01-05T06:53:31.162Z,41.40
2019-01-05T06:57:11.539Z,38.90
2019-01-05T07:00:52.337Z,38.17
2019-01-05T07:04:41.741Z,40.33
2019-01-05T07:08:20.790Z,33.98
2019-01-05T07:11:43.265Z,35.33
2019-01-05T07:15:28.632Z,32.58
2019-01-05T07:18:54.487Z,34.63
2019-01-05T07:22:24.615Z,38.17
2019-01-05T07:26:09.720Z,31.07
2019-01-05T07:29:31.779Z,26.95
2019-01-05T07:33:10.213Z,24.47
2019-01-05T07:36:54.500Z,19.60
2019-01-05T07:40:35.895Z,17.52
2019-01-05T07:44:27.549Z,17.20
2019-01-05T07:47:48.993Z,19.00
2019-01-05T07:51:10.077Z,15.28
2019-01-05T07:54:42.397Z,10.03
2019-01-05T07:57:53.660Z,12.05
2019-01-05T08:01:22.455Z,13.53
2019-01-05T08:05:05.741Z,8.65
2019-01-05T08:08:39.087Z,14.03
2019-01-05T08:12:02.802Z,6.70
2019-01-05T08:15:37.088Z,10.98
2019-01-05T08:19:32.220Z,9.40
2019-01-05T08:23:02.121Z,11.48
2019-01-05T08:26:28.455Z,10.65
2019-01-05T08:29:46.448Z,13.38
2019-01-05T08:33:04.944Z,9.80
2019-01-05T08:36:40.086Z,9.13
2019-01-05T08:40:18.101Z,12.23
2019-01-05T08:43:53.227Z,11.80
2019-01-05T08:47:31.331Z,14.68
2019-01-05T08:50:47.469Z,9.50
2019-01-05T08:54:04.525Z,14.40
2019-01-05T08:57:23.153Z,8.65
2019-01-05T09:00:57.017Z,14.40
2019-01-05T09:04:44.964Z,11.78
2019-01-05T09:08:10.201Z,11.45
2019-01-05T09:11:38.506Z,14.83
2019-01-05T09:15:23.666Z,13.68
2019-01-05T09:18:38.037Z,14.95
2019-01-05T09:22:30.378Z,16.57
2019-01-05T09:25:59.958Z,12.95
2019-01-05T09:29:38.199Z,11.65
2019-01-05T09:33:30.554Z,10.55
2019-01-05T09:36:52.380Z,9.05
2019-01-05T09:40:16.615Z,9.13
2019-01-05T09:43:45.108Z,9.53
2019-01-05T09:47:20.258Z,13.43
2019-01-05T09:50:47.645Z,10.43
2019-01-05T09:54:18.217Z,11.35
2019-01-05T09:57:40.963Z,9.68
2019-01-05T10:01:10.508Z,9.65
2019-01-05T10:04:43.314Z,10.13
2019-01-05T10:08:25.658Z,8.83
2019-01-05T10:11:42.372Z,8.45
2019-01-05T10:15:38.882Z,15.43
2019-01-05T10:19:25.556Z,10.05
2019-01-05T10:22:59.263Z,11.88
2019-01-05T10:26:25.135Z,11.05
2019-01-05T10:30:26.595Z,10.13
2019-01-05T10:34:04.918Z,12.43
2019-01-05T10:37:28.643Z,5.73
2019-01-05T10:41:09.194Z,7.63
2019-01-05T10:44:26.797Z,10.73
2019-01-05T10:47:48.236Z,13.70
2019-01-05T10:51:42.704Z,7.67
2019-01-05T10:55:15.078Z,7.97
2019-01-05T10:58:29.074Z,10.57
2019-01-05T11:01:58.386Z,7.60
2019-01-05T11:05:24.398Z,5.33
2019-01-05T11:08:48.661Z,9.65
2019-01-05T11:12:38.354Z,8.80
2019-01-05T11:16:03.930Z,8.00
2019-01-05T11:20:02.482Z,7.15
2019-01-05T11:23:35.728Z,8.15
2019-01-05T11:27:11.541Z,8.75
2019-01-05T11:30:49.764Z,10.90
2019-01-05T11:34:32.476Z,7.25
2019-01-05T11:38:07.888Z,8.65
2019-01-05T11:41:37.177Z,8.90
2019-01-05T11:44:50.701Z,8.43
2019-01-05T11:48:38.887Z,8.37
2019-01-05T11:52:33.253Z,11.35
2019-01-05T11:55:55.007Z,5.53
2019-01-05T11:59:29.125Z,13.53
2019-01-05T12:02:45.126Z,7.63
2019-01-05T12:06:02.183Z,7.77
2019-01-05T12:09:26.564Z,11.07
2019-01-05T12:12:45.813Z,11.70
2019-01-05T12:16:26.734Z,9.33
2019-01-05T12:19:59.729Z,11.67
2019-01-05T12:23:34.789Z,8.43
2019-01-05T12:27:35.243Z,14.50
2019-01-05T12:31:05.053Z,8.40
2019-01-05T12:34:38.257Z,7.30
2019-01-05T12:38:04.127Z,6.47
2019-01-05T12:41:37.463Z,9.50
2019-01-05T12:45:18.430Z,12.07
2019-01-05T12:48:47.453Z,10.10
2019-01-05T12:52:01.252Z,10.93
2019-01-05T12:55:22.711Z,13.60
2019-01-05T12:58:48.707Z,10.07
2019-01-05T13:02:25.047Z,13.67
2019-01-05T13:05:34.043Z,9.47
2019-01-05T13:08:45.223Z,11.20
2019-01-05T13:12:23.149Z,8.70
2019-01-05T13:15:43.957Z,9.97
2019-01-05T13:18:57.869Z,12.85
2019-01-05T13:22:14.691Z,14.53
2019-01-05T13:25:32.715Z,11.38
2019-01-05T13:29:11.751Z,12.50
2019-01-05T13:33:11.765Z,10.10
2019-01-05T13:36:30.909Z,14.28
2019-01-05T13:40:03.135Z,8.83
2019-01-05T13:44:04.657Z,8.60
2019-01-05T13:47:42.633Z,13.00
2019-01-05T13:50:51.157Z,11.93
2019-01-05T13:53:58.865Z,8.37
2019-01-05T13:56:49.069Z,11.57
2019-01-05T13:59:44.861Z,10.30
2019-01-05T14:02:32.721Z,8.07
2019-01-05T14:05:18.821Z,9.93
2019-01-05T14:08:11.480Z,10.93
2019-01-05T14:10:54.407Z,8.27
2019-01-05T14:13:50.381Z,8.17
2019-01-05T14:16:41.773Z,9.05
2019-01-05T14:19:28.721Z,7.17
2019-01-05T14:22:18.451Z,8.20
2019-01-05T14:25:23.302Z,4.67
2019-01-05T14:28:12.959Z,11.43
2019-01-05T14:31:05.579Z,10.77
2019-01-05T14:34:04.481Z,7.43
2019-01-05T14:37:06.049Z,12.43
2019-01-05T14:39:51.286Z,8.63
2019-01-05T14:42:50.273Z,11.60
2019-01-05T14:45:33.927Z,12.83
2019-01-05T14:48:19.229Z,11.45
2019-01-05T14:51:04.700Z,11.17
2019-01-05T14:53:51.795Z,8.33
2019-01-05T14:56:37.203Z,12.80
2019-01-05T14:59:22.463Z,10.50
2019-01-05T15:02:14.903Z,11.20
2019-01-05T15:05:00.265Z,10.60
2019-01-05T15:07:51.456Z,9.70
2019-01-05T15:10:36.966Z,11.47
2019-01-05T15:13:32.557Z,10.87
2019-01-05T15:16:25.257Z,14.05
2019-01-05T15:19:10.645Z,11.87
2019-01-05T15:22:09.321Z,11.20
2019-01-05T15:25:01.945Z,13.50
2019-01-05T15:27:47.215Z,12.33
2019-01-05T15:30:28.469Z,11.83
2019-01-05T15:33:19.847Z,9.75
2019-01-05T15:36:20.081Z,9.43
2019-01-05T15:39:07.025Z,10.70
2019-01-05T15:41:56.941Z,13.10
2019-01-05T15:44:52.753Z,14.17
2019-01-05T15:47:34.994Z,11.57
2019-01-05T15:50:33.744Z,15.83
2019-01-05T15:53:22.337Z,14.20
2019-01-05T15:56:17.829Z,13.77
2019-01-05T15:59:04.157Z,10.47
2019-01-05T16:02:02.884Z,13.68
2019-01-05T16:04:59.021Z,13.43
2019-01-05T16:08:01.201Z,13.15
2019-01-05T16:10:46.565Z,12.60
2019-01-05T16:13:36.533Z,13.33
2019-01-05T16:16:24.395Z,12.97
2019-01-05T16:19:09.568Z,12.43
2019-01-05T16:21:54.547Z,13.67
2019-01-05T16:24:52.704Z,9.63
2019-01-05T16:27:42.017Z,14.63
2019-01-05T16:30:40.840Z,15.20
2019-01-05T16:33:39.916Z,15.33
2019-01-05T16:36:31.899Z,14.43
2019-01-05T16:39:14.589Z,15.23
2019-01-05T16:42:19.546Z,20.47
2019-01-05T16:45:04.143Z,17.57
2019-01-05T16:47:51.017Z,17.17
2019-01-05T16:50:49.947Z,16.50
2019-01-05T16:53:33.284Z,21.97
2019-01-05T16:56:29.070Z,16.40
2019-01-05T16:59:14.484Z,18.40
2019-01-05T17:01:59.485Z,18.17
2019-01-05T17:04:46.501Z,20.88
2019-01-05T17:07:31.565Z,15.67
2019-01-05T17:10:16.648Z,16.23
2019-01-05T17:13:02.251Z,18.20
2019-01-05T17:15:47.523Z,15.53
2019-01-05T17:18:36.975Z,12.93
2019-01-05T17:21:25.358Z,18.07
2019-01-05T17:24:18.070Z,14.30
2019-01-05T17:27:04.950Z,14.58
2019-01-05T17:30:09.611Z,15.83
2019-01-05T17:32:48.190Z,15.30
2019-01-05T17:35:41.062Z,14.07
2019-01-05T17:38:16.435Z,18.82
2019-01-05T17:41:21.387Z,14.87
2019-01-05T17:44:26.497Z,14.43
2019-01-05T17:47:16.215Z,16.35
2019-01-05T17:50:18.066Z,15.38
2019-01-05T17:53:13.868Z,16.62
2019-01-05T17:56:09.696Z,16.48
2019-01-05T17:59:03.722Z,17.30
2019-01-05T18:01:49.175Z,11.28
2019-01-05T18:04:34.709Z,12.80
2019-01-05T18:07:21.613Z,12.85
2019-01-05T18:10:08.462Z,12.70
2019-01-05T18:13:01.492Z,15.85
2019-01-05T18:15:49.887Z,13.60
2019-01-05T18:18:41.814Z,14.78
2019-01-05T18:21:24.129Z,12.15
2019-01-05T18:24:09.480Z,11.88
2019-01-05T18:27:11.321Z,12.70
2019-01-05T18:29:56.323Z,13.13
2019-01-05T18:32:54.524Z,13.45
2019-01-05T18:35:47.544Z,13.87
2019-01-05T18:38:32.649Z,14.53
2019-01-05T18:41:19.457Z,19.57
2019-01-05T18:44:04.888Z,13.22
2019-01-05T18:46:50.304Z,15.23
2019-01-05T18:49:46.468Z,14.00
2019-01-05T18:52:42.599Z,16.73
2019-01-05T18:55:28.182Z,15.83
2019-01-05T18:58:33.875Z,17.00
2019-01-05T19:01:19.453Z,18.15
2019-01-05T19:04:21.318Z,13.05
2019-01-05T19:07:06.469Z,16.95
2019-01-05T19:10:08.059Z,17.57
2019-01-05T19:12:53.389Z,21.00
2019-01-05T19:15:55.195Z,22.30
2019-01-05T19:18:45.100Z,15.63
2019-01-05T19:21:43.589Z,18.75
2019-01-05T19:24:28.902Z,17.95
2019-01-05T19:27:12.101Z,17.30
2019-01-05T19:29:59.037Z,22.60
2019-01-05T19:32:54.802Z,16.67
2019-01-05T19:35:59.919Z,16.87
2019-01-05T19:38:48.516Z,19.37
2019-01-05T19:41:48.477Z,19.23
2019-01-05T19:44:47.442Z,24.90
2019-01-05T19:47:46.725Z,29.02
2019-01-05T19:50:42.233Z,19.50
2019-01-05T19:53:32.053Z,23.32
2019-01-05T19:56:27.833Z,22.55
2019-01-05T19:59:23.357Z,24.70
2019-01-05T20:02:11.687Z,26.02
2019-01-05T20:05:12.639Z,27.82
2019-01-05T20:07:59.017Z,24.63
2019-01-05T20:10:51.589Z,24.12
2019-01-05T20:13:56.198Z,19.95
2019-01-05T20:16:49.272Z,25.00
2019-01-05T20:19:45.638Z,20.13
2019-01-05T20:22:27.081Z,18.92
2019-01-05T20:25:28.933Z,24.23
2019-01-05T20:28:14.148Z,24.27
2019-01-05T20:31:10.384Z,19.25
2019-01-05T20:34:15.326Z,18.82
2019-01-05T20:37:01.009Z,22.27
2019-01-05T20:39:46.121Z,17.62
2019-01-05T20:42:33.061Z,22.37
2019-01-05T20:45:18.453Z,22.62
2019-01-05T20:47:58.382Z,20.43
2019-01-05T20:51:00.219Z,21.77
2019-01-05T20:54:04.821Z,20.88
2019-01-05T20:56:55.995Z,19.73
2019-01-05T20:59:42.875Z,22.07
2019-01-05T21:02:29.189Z,18.50
2019-01-05T21:05:14.541Z,16.60
2019-01-05T21:07:59.611Z,14.68
2019-01-05T21:10:44.921Z,18.37
2019-01-05T21:13:32.450Z,15.05
2019-01-05T21:16:17.529Z,15.95
2019-01-05T21:19:03.182Z,15.38
2019-01-05T21:21:50.224Z,14.45
2019-01-05T21:24:49.301Z,18.57
2019-01-05T21:27:48.049Z,18.82
2019-01-05T21:30:49.962Z,17.27
2019-01-05T21:33:40.131Z,17.05
2019-01-05T21:36:44.881Z,14.33
2019-01-05T21:39:30.067Z,14.95
2019-01-05T21:42:32.233Z,17.05
2019-01-05T21:45:31.005Z,15.40
2019-01-05T21:48:16.357Z,15.68
2019-01-05T21:50:58.573Z,21.60
2019-01-05T21:53:45.424Z,14.90
2019-01-05T21:56:41.134Z,15.18
2019-01-05T21:59:43.035Z,13.88
2019-01-05T22:02:43.308Z,11.88
2019-01-05T22:05:29.329Z,13.28
2019-01-05T22:08:22.892Z,13.83
2019-01-05T22:11:05.506Z,10.35
2019-01-05T22:14:04.023Z,12.68
2019-01-05T22:17:08.937Z,12.30
2019-01-05T22:19:56.066Z,14.23
2019-01-05T22:22:42.938Z,14.07
2019-01-05T22:25:44.124Z,12.80
2019-01-05T22:28:29.406Z,13.78
2019-01-05T22:31:15.083Z,14.98
2019-01-05T22:34:00.095Z,11.73
2019-01-05T22:36:43.335Z,14.33
2019-01-05T22:39:39.597Z,14.23
2019-01-05T22:42:30.274Z,12.93
2019-01-05T22:45:17.154Z,17.32
2019-01-05T22:48:02.381Z,13.20
2019-01-05T22:50:45.304Z,11.48
2019-01-05T22:53:38.100Z,13.38
2019-01-05T22:56:30.482Z,13.13
2019-01-05T22:59:15.787Z,14.73
2019-01-05T23:02:10.769Z,11.97
2019-01-05T23:04:56.093Z,14.95
2019-01-05T23:07:41.750Z,12.55
2019-01-05T23:10:28.599Z,8.55
2019-01-05T23:13:14.009Z,10.90
2019-01-05T23:16:00.073Z,8.28
2019-01-05T23:18:43.929Z,11.00
2019-01-05T23:21:34.455Z,11.90
2019-01-05T23:24:33.486Z,11.73
2019-01-05T23:27:26.233Z,11.00
2019-01-05T23:30:11.258Z,9.40
2019-01-05T23:32:54.419Z,11.00
2019-01-05T23:35:41.259Z,12.23
2019-01-05T23:38:26.731Z,11.90
2019-01-05T23:41:16.146Z,8.35
2019-01-05T23:44:01.222Z,10.43
2019-01-05T23:46:50.799Z,11.55
2019-01-05T23:49:43.558Z,10.20
2019-01-05T23:52:31.597Z,9.03
2019-01-05T23:55:16.158Z,9.88
2019-01-05T23:58:03.161Z,12.15
